createdAt,value
2023-02-14T00:00:08.291Z,5.70
2023-02-14T00:03:11.770Z,5.77
2023-02-14T00:06:16.056Z,5.72
2023-02-14T00:09:20.805Z,5.77
2023-02-14T00:12:24.093Z,5.78
2023-02-14T00:15:28.726Z,5.66
2023-02-14T00:18:45.920Z,5.66
2023-02-14T00:21:50.328Z,5.66
2023-02-14T00:24:53.610Z,5.67
2023-02-14T00:27:56.940Z,5.65
2023-02-14T00:31:02.790Z,5.61
2023-02-14T00:34:06.697Z,5.61
2023-02-14T00:37:09.812Z,5.62
2023-02-14T00:40:15.880Z,5.66
2023-02-14T00:43:18.931Z,5.71
2023-02-14T00:46:25.090Z,5.76
2023-02-14T00:49:29.023Z,5.80
2023-02-14T00:52:35.362Z,5.80
2023-02-14T00:55:38.855Z,5.61
2023-02-14T00:58:42.735Z,5.69
2023-02-14T01:01:47.294Z,5.67
2023-02-14T01:04:50.465Z,5.68
2023-02-14T01:07:55.178Z,5.66
2023-02-14T01:11:08.506Z,5.61
2023-02-14T01:14:11.855Z,5.58
2023-02-14T01:17:16.976Z,5.52
2023-02-14T01:20:20.325Z,5.48
2023-02-14T01:23:25.672Z,5.50
2023-02-14T01:26:29.949Z,5.60
2023-02-14T01:29:33.219Z,5.57
2023-02-14T01:32:38.185Z,5.56
2023-02-14T01:35:41.539Z,5.51
2023-02-14T01:38:48.321Z,5.47
2023-02-14T01:41:53.880Z,5.58
2023-02-14T01:45:02.179Z,5.64
2023-02-14T01:48:07.008Z,5.58
2023-02-14T01:51:10.477Z,5.51
2023-02-14T01:54:14.306Z,5.58
2023-02-14T01:57:20.445Z,5.59
2023-02-14T02:00:41.566Z,5.59
2023-02-14T02:03:50.569Z,5.60
2023-02-14T02:06:58.301Z,5.52
2023-02-14T02:10:08.751Z,5.47
2023-02-14T02:13:19.285Z,5.44
2023-02-14T02:16:48.428Z,5.44
2023-02-14T02:21:07.125Z,5.54
2023-02-14T02:24:33.319Z,5.58
2023-02-14T02:27:56.778Z,5.56
2023-02-14T02:31:22.323Z,5.61
2023-02-14T02:35:17.227Z,5.59
2023-02-14T02:38:45.010Z,5.62
2023-02-14T02:42:04.316Z,5.64
2023-02-14T02:45:15.459Z,5.53
2023-02-14T02:48:24.790Z,5.59
2023-02-14T02:51:56.494Z,5.57
2023-02-14T02:55:06.973Z,5.53
2023-02-14T02:58:10.371Z,5.52
2023-02-14T03:01:18.466Z,5.47
2023-02-14T03:04:40.382Z,5.44
2023-02-14T03:07:45.339Z,5.47
2023-02-14T03:10:48.916Z,5.45
2023-02-14T03:14:10.872Z,5.39
2023-02-14T03:17:43.798Z,5.42
2023-02-14T03:20:55.485Z,5.49
2023-02-14T03:24:09.305Z,5.49
2023-02-14T03:27:19.387Z,5.49
2023-02-14T03:30:36.682Z,5.47
2023-02-14T03:33:48.874Z,5.49
2023-02-14T03:37:00.999Z,5.45
2023-02-14T03:40:11.202Z,5.40
2023-02-14T03:43:20.270Z,5.47
2023-02-14T03:46:28.928Z,5.48
2023-02-14T03:49:36.690Z,5.46
2023-02-14T03:52:44.821Z,5.42
2023-02-14T03:55:56.972Z,5.44
2023-02-14T03:59:10.620Z,5.42
2023-02-14T04:02:18.987Z,5.41
2023-02-14T04:05:26.587Z,5.39
2023-02-14T04:08:30.861Z,5.39
2023-02-14T04:11:35.902Z,5.41
2023-02-14T04:14:39.267Z,5.40
2023-02-14T04:18:00.134Z,5.42
2023-02-14T04:21:03.190Z,5.38
2023-02-14T04:24:12.392Z,5.39
2023-02-14T04:27:26.058Z,5.39
2023-02-14T04:30:34.013Z,5.34
2023-02-14T04:33:37.463Z,5.29
2023-02-14T04:36:43.348Z,5.35
2023-02-14T04:39:47.006Z,5.33
2023-02-14T04:42:51.352Z,5.29
2023-02-14T04:45:54.456Z,5.28
2023-02-14T04:48:57.496Z,5.28
2023-02-14T04:52:00.822Z,5.27
2023-02-14T04:55:04.447Z,5.28
2023-02-14T04:58:09.297Z,5.29
2023-02-14T05:01:12.423Z,5.27
2023-02-14T05:04:15.850Z,5.17
2023-02-14T05:07:19.407Z,5.16
2023-02-14T05:10:25.645Z,5.17
2023-02-14T05:13:30.164Z,5.21
2023-02-14T05:16:33.488Z,5.21
2023-02-14T05:19:36.693Z,5.13
2023-02-14T05:22:39.972Z,5.15
2023-02-14T05:25:45.792Z,5.17
2023-02-14T05:28:50.436Z,5.20
2023-02-14T05:31:53.658Z,5.19
2023-02-14T05:34:57.056Z,5.13
2023-02-14T05:38:00.382Z,5.11
2023-02-14T05:41:03.826Z,5.14
2023-02-14T05:44:11.358Z,5.19
2023-02-14T05:47:14.615Z,5.16
2023-02-14T05:50:18.509Z,5.18
2023-02-14T05:53:21.648Z,5.20
2023-02-14T05:56:24.819Z,5.19
2023-02-14T05:59:29.584Z,5.18
2023-02-14T06:02:32.700Z,5.21
2023-02-14T06:05:36.243Z,5.19
2023-02-14T06:08:39.415Z,5.18
2023-02-14T06:11:42.712Z,5.19
2023-02-14T06:14:47.085Z,5.25
2023-02-14T06:17:53.917Z,5.21
2023-02-14T06:20:57.568Z,5.21
2023-02-14T06:24:01.053Z,5.21
2023-02-14T06:27:04.452Z,5.21
2023-02-14T06:30:11.358Z,5.20
2023-02-14T06:33:14.590Z,5.17
2023-02-14T06:36:18.014Z,5.20
2023-02-14T06:39:21.511Z,5.16
2023-02-14T06:42:24.629Z,5.15
2023-02-14T06:45:29.105Z,5.13
2023-02-14T06:48:32.189Z,5.16
2023-02-14T06:51:35.421Z,5.16
2023-02-14T06:54:38.480Z,5.19
2023-02-14T06:57:43.596Z,5.24
2023-02-14T07:00:48.716Z,5.26
2023-02-14T07:03:51.906Z,5.28
2023-02-14T07:06:55.036Z,5.28
2023-02-14T07:09:58.137Z,5.27
2023-02-14T07:13:01.911Z,5.27
2023-02-14T07:16:07.053Z,5.27
2023-02-14T07:19:10.321Z,5.28
2023-02-14T07:22:13.527Z,5.32
2023-02-14T07:25:16.756Z,5.29
2023-02-14T07:28:20.141Z,5.31
2023-02-14T07:31:24.636Z,5.27
2023-02-14T07:34:28.187Z,5.32
2023-02-14T07:37:33.258Z,5.36
2023-02-14T07:40:36.396Z,5.36
2023-02-14T07:43:39.856Z,5.38
2023-02-14T07:46:44.826Z,5.35
2023-02-14T07:49:51.041Z,5.38
2023-02-14T07:52:54.417Z,5.39
2023-02-14T07:55:57.918Z,5.37
2023-02-14T07:59:03.149Z,5.38
2023-02-14T08:02:07.869Z,5.47
2023-02-14T08:05:11.231Z,5.47
2023-02-14T08:08:14.398Z,5.52
2023-02-14T08:11:38.238Z,5.45
2023-02-14T08:14:42.276Z,5.50
2023-02-14T08:17:46.688Z,5.50
2023-02-14T08:20:50.683Z,5.51
2023-02-14T08:23:54.159Z,5.54
2023-02-14T08:26:57.787Z,5.53
2023-02-14T08:30:00.945Z,5.55
2023-02-14T08:33:06.147Z,5.60
2023-02-14T08:36:09.521Z,5.65
2023-02-14T08:39:12.839Z,5.66
2023-02-14T08:42:16.024Z,5.66
2023-02-14T08:45:19.215Z,5.67
2023-02-14T08:48:25.312Z,5.64
2023-02-14T08:51:29.179Z,5.66
2023-02-14T08:54:32.482Z,5.70
2023-02-14T08:57:35.579Z,5.74
2023-02-14T09:00:39.202Z,5.82
2023-02-14T09:03:44.215Z,5.77
2023-02-14T09:06:48.514Z,5.71
2023-02-14T09:09:51.597Z,5.74
2023-02-14T09:12:54.849Z,5.80
2023-02-14T09:15:58.008Z,5.82
2023-02-14T09:19:02.795Z,5.85
2023-02-14T09:22:08.039Z,5.90
2023-02-14T09:25:11.519Z,5.93
2023-02-14T09:28:15.175Z,5.98
2023-02-14T09:31:21.227Z,6.03
2023-02-14T09:34:26.195Z,6.12
2023-02-14T09:37:47.414Z,6.12
2023-02-14T09:40:53.509Z,6.20
2023-02-14T09:44:02.841Z,6.28
2023-02-14T09:47:15.534Z,6.26
2023-02-14T09:50:25.442Z,6.30
2023-02-14T09:53:31.969Z,6.42
2023-02-14T09:56:51.353Z,6.40
2023-02-14T10:00:05.169Z,6.38
2023-02-14T10:03:44.121Z,6.43
2023-02-14T10:06:54.548Z,6.42
2023-02-14T10:10:03.079Z,6.36
2023-02-14T10:13:15.791Z,6.32
2023-02-14T10:16:27.216Z,6.47
2023-02-14T10:19:35.924Z,6.46
2023-02-14T10:22:47.853Z,6.43
2023-02-14T10:25:59.231Z,6.50
2023-02-14T10:29:06.649Z,6.55
2023-02-14T10:32:15.740Z,6.66
2023-02-14T10:35:32.608Z,6.69
2023-02-14T10:38:49.608Z,6.70
2023-02-14T10:41:59.638Z,6.70
2023-02-14T10:45:17.315Z,6.74
2023-02-14T10:48:31.103Z,6.71
2023-02-14T10:51:41.129Z,6.70
2023-02-14T10:54:53.051Z,6.66
2023-02-14T10:57:57.694Z,6.72
2023-02-14T11:01:06.981Z,6.73
2023-02-14T11:04:13.162Z,6.82
2023-02-14T11:07:18.804Z,6.92
2023-02-14T11:10:29.722Z,6.81
2023-02-14T11:13:38.904Z,6.80
2023-02-14T11:16:42.554Z,6.84
2023-02-14T11:19:59.337Z,6.83
2023-02-14T11:23:21.417Z,6.81
2023-02-14T11:26:31.887Z,6.77
2023-02-14T11:29:43.711Z,6.87
2023-02-14T11:32:56.108Z,6.79
2023-02-14T11:35:59.642Z,6.96
2023-02-14T11:39:25.829Z,6.89
2023-02-14T11:42:43.853Z,7.03
2023-02-14T11:45:49.037Z,7.02
2023-02-14T11:48:59.841Z,7.04
2023-02-14T11:52:11.821Z,7.00
2023-02-14T11:55:27.205Z,7.03
2023-02-14T11:58:37.199Z,6.97
2023-02-14T12:01:41.466Z,6.96
2023-02-14T12:04:46.971Z,6.85
2023-02-14T12:07:53.717Z,6.93
2023-02-14T12:11:06.020Z,7.02
2023-02-14T12:14:23.037Z,7.08
2023-02-14T12:17:34.260Z,7.04
2023-02-14T12:20:45.420Z,6.95
2023-02-14T12:24:00.228Z,7.00
2023-02-14T12:27:20.021Z,7.09
2023-02-14T12:30:30.859Z,7.01
2023-02-14T12:33:34.149Z,6.93
2023-02-14T12:37:05.385Z,6.93
2023-02-14T12:40:23.011Z,6.88
2023-02-14T12:43:47.951Z,6.80
2023-02-14T12:47:19.464Z,6.70
2023-02-14T12:50:35.937Z,6.86
2023-02-14T12:53:52.133Z,6.89
2023-02-14T12:57:07.567Z,6.90
2023-02-14T13:00:28.959Z,6.91
2023-02-14T13:03:51.602Z,6.91
2023-02-14T13:07:05.627Z,6.94
2023-02-14T13:10:22.942Z,6.93
2023-02-14T13:13:36.906Z,6.83
2023-02-14T13:16:47.861Z,7.03
2023-02-14T13:20:03.320Z,6.98
2023-02-14T13:23:13.577Z,6.89
2023-02-14T13:26:20.713Z,6.86
2023-02-14T13:29:27.688Z,7.01
2023-02-14T13:32:36.260Z,6.96
2023-02-14T13:35:42.027Z,6.91
2023-02-14T13:38:48.795Z,7.06
2023-02-14T13:41:52.025Z,6.94
2023-02-14T13:44:55.185Z,6.96
2023-02-14T13:48:05.795Z,6.89
2023-02-14T13:51:11.424Z,6.92
2023-02-14T13:54:35.775Z,7.05
2023-02-14T13:57:41.320Z,7.05
2023-02-14T14:00:46.871Z,7.00
2023-02-14T14:04:00.360Z,7.05
2023-02-14T14:07:30.720Z,7.02
2023-02-14T14:10:46.171Z,7.09
2023-02-14T14:13:57.872Z,7.09
2023-02-14T14:17:02.382Z,7.11
2023-02-14T14:20:42.674Z,7.05
2023-02-14T14:23:46.015Z,7.09
2023-02-14T14:26:52.151Z,6.99
2023-02-14T14:29:58.610Z,6.81
2023-02-14T14:33:15.078Z,6.90
2023-02-14T14:36:25.995Z,6.84
2023-02-14T14:39:32.709Z,6.79
2023-02-14T14:42:39.967Z,6.71
2023-02-14T14:45:48.153Z,6.69
2023-02-14T14:48:57.252Z,6.65
2023-02-14T14:52:01.861Z,6.75
2023-02-14T14:55:07.690Z,6.76
2023-02-14T14:58:35.422Z,6.80
2023-02-14T15:01:45.963Z,6.85
2023-02-14T15:04:49.387Z,6.89
2023-02-14T15:07:54.173Z,6.81
2023-02-14T15:11:08.120Z,6.73
2023-02-14T15:14:17.813Z,6.70
2023-02-14T15:17:26.799Z,6.70
2023-02-14T15:20:30.036Z,6.73
2023-02-14T15:23:35.384Z,6.61
2023-02-14T15:26:38.724Z,6.59
2023-02-14T15:29:41.884Z,6.64
2023-02-14T15:32:52.135Z,6.64
2023-02-14T15:35:57.320Z,6.52
2023-02-14T15:39:04.852Z,6.46
2023-02-14T15:42:26.090Z,6.41
2023-02-14T15:45:32.165Z,6.38
2023-02-14T15:48:36.432Z,6.45
2023-02-14T15:51:40.983Z,6.44
2023-02-14T15:54:47.504Z,6.41
2023-02-14T15:58:01.514Z,6.37
2023-02-14T16:01:05.726Z,6.40
2023-02-14T16:04:08.946Z,6.39
2023-02-14T16:07:25.380Z,6.45
2023-02-14T16:10:33.256Z,6.49
2023-02-14T16:13:39.255Z,6.41
2023-02-14T16:17:03.502Z,6.38
2023-02-14T16:20:29.688Z,6.32
2023-02-14T16:23:33.314Z,6.18
2023-02-14T16:26:41.027Z,6.09
2023-02-14T16:29:44.162Z,6.10
2023-02-14T16:32:53.557Z,5.93
2023-02-14T16:36:06.185Z,5.99
2023-02-14T16:39:16.863Z,5.93
2023-02-14T16:42:21.828Z,5.84
2023-02-14T16:45:25.005Z,5.82
2023-02-14T16:48:32.033Z,5.81
2023-02-14T16:51:38.721Z,5.84
2023-02-14T16:54:41.943Z,5.77
2023-02-14T16:57:49.302Z,5.75
2023-02-14T17:00:52.615Z,5.73
2023-02-14T17:03:57.397Z,5.72
2023-02-14T17:07:05.779Z,5.74
2023-02-14T17:10:13.170Z,5.78
2023-02-14T17:13:23.136Z,5.77
2023-02-14T17:16:26.305Z,5.76
2023-02-14T17:19:29.567Z,5.80
2023-02-14T17:22:34.438Z,5.77
2023-02-14T17:25:38.672Z,5.68
2023-02-14T17:28:43.415Z,5.68
2023-02-14T17:31:46.776Z,5.66
2023-02-14T17:34:50.194Z,5.65
2023-02-14T17:37:53.238Z,5.65
2023-02-14T17:40:56.294Z,5.60
2023-02-14T17:44:00.853Z,5.67
2023-02-14T17:47:08.190Z,5.67
2023-02-14T17:50:13.029Z,5.70
2023-02-14T17:53:17.833Z,5.74
2023-02-14T17:56:24.542Z,5.74
2023-02-14T17:59:29.097Z,5.73
2023-02-14T18:02:32.424Z,5.73
2023-02-14T18:05:37.551Z,5.68
2023-02-14T18:08:46.241Z,5.72
2023-02-14T18:11:50.454Z,5.69
2023-02-14T18:14:56.176Z,5.70
2023-02-14T18:17:59.298Z,5.73
2023-02-14T18:21:04.643Z,5.74
2023-02-14T18:24:08.612Z,5.71
2023-02-14T18:27:15.865Z,5.75
2023-02-14T18:30:20.622Z,5.75
2023-02-14T18:33:26.748Z,5.55
2023-02-14T18:36:31.701Z,5.48
2023-02-14T18:39:35.053Z,5.44
2023-02-14T18:42:38.225Z,5.46
2023-02-14T18:45:42.738Z,5.43
2023-02-14T18:48:46.145Z,5.49
2023-02-14T18:51:49.984Z,5.49
2023-02-14T18:54:53.346Z,5.52
2023-02-14T18:57:56.580Z,5.51
2023-02-14T19:01:09.313Z,5.43
2023-02-14T19:04:17.064Z,5.43
2023-02-14T19:07:20.100Z,5.38
2023-02-14T19:10:23.352Z,5.34
2023-02-14T19:13:29.253Z,5.33
2023-02-14T19:16:38.177Z,5.32
2023-02-14T19:19:41.307Z,5.32
2023-02-14T19:22:44.374Z,5.27
2023-02-14T19:25:47.493Z,5.25
2023-02-14T19:32:19.083Z,5.32
2023-02-14T19:35:22.297Z,5.32
2023-02-14T19:38:25.445Z,5.36
2023-02-14T19:41:34.303Z,5.26
2023-02-14T19:44:37.447Z,5.26
2023-02-14T19:47:47.197Z,5.25
2023-02-14T19:50:50.800Z,5.31
2023-02-14T19:53:55.669Z,5.26
2023-02-14T19:56:59.165Z,5.25
2023-02-14T20:00:02.420Z,5.27
2023-02-14T20:03:16.080Z,5.24
2023-02-14T20:06:19.485Z,5.20
2023-02-14T20:09:23.731Z,5.19
2023-02-14T20:12:29.777Z,5.24
2023-02-14T20:15:35.651Z,5.21
2023-02-14T20:18:40.141Z,5.20
2023-02-14T20:21:45.071Z,5.20
2023-02-14T20:24:48.196Z,5.21
2023-02-14T20:27:55.287Z,5.20
2023-02-14T20:30:58.686Z,5.22
2023-02-14T20:34:04.090Z,5.19
2023-02-14T20:37:07.529Z,5.19
2023-02-14T20:40:12.962Z,5.19
2023-02-14T20:43:18.329Z,5.21
2023-02-14T20:46:23.609Z,5.18
2023-02-14T20:49:32.672Z,5.10
2023-02-14T20:52:37.285Z,5.02
2023-02-14T20:55:44.500Z,4.98
2023-02-14T20:58:47.774Z,5.00
2023-02-14T21:01:52.212Z,5.03
2023-02-14T21:05:00.115Z,5.05
2023-02-14T21:08:03.504Z,5.06
2023-02-14T21:11:09.306Z,5.06
2023-02-14T21:14:12.826Z,4.98
2023-02-14T21:17:16.500Z,4.91
2023-02-14T21:20:21.316Z,4.94
2023-02-14T21:23:24.537Z,4.93
2023-02-14T21:26:30.982Z,4.91
2023-02-14T21:29:34.038Z,4.89
2023-02-14T21:32:37.481Z,4.91
2023-02-14T21:35:41.968Z,4.92
2023-02-14T21:38:46.092Z,4.87
2023-02-14T21:41:50.217Z,4.86
2023-02-14T21:45:10.599Z,4.83
2023-02-14T21:48:34.277Z,4.78
2023-02-14T21:51:39.682Z,4.78
2023-02-14T21:54:43.018Z,4.74
2023-02-14T21:57:46.652Z,4.74
2023-02-14T22:00:49.718Z,4.75
2023-02-14T22:03:53.553Z,4.81
2023-02-14T22:06:58.026Z,4.82
2023-02-14T22:10:01.313Z,4.83
2023-02-14T22:13:04.483Z,4.71
2023-02-14T22:16:11.751Z,4.67
2023-02-14T22:19:16.516Z,4.64
2023-02-14T22:22:20.988Z,4.69
2023-02-14T22:25:26.218Z,4.76
2023-02-14T22:28:29.272Z,4.73
2023-02-14T22:31:36.817Z,4.71
2023-02-14T22:34:40.097Z,4.74
2023-02-14T22:37:48.609Z,4.70
2023-02-14T22:40:51.789Z,4.63
2023-02-14T22:43:55.459Z,4.58
2023-02-14T22:46:58.616Z,4.60
2023-02-14T22:50:01.736Z,4.55
2023-02-14T22:53:06.685Z,4.54
2023-02-14T22:56:15.983Z,4.49
2023-02-14T22:59:21.242Z,4.39
2023-02-14T23:02:24.436Z,4.36
2023-02-14T23:05:27.783Z,4.38
2023-02-14T23:08:32.336Z,4.41
2023-02-14T23:11:38.063Z,4.40
2023-02-14T23:14:58.433Z,4.41
2023-02-14T23:18:19.329Z,4.31
2023-02-14T23:21:36.358Z,4.25
2023-02-14T23:24:41.525Z,4.22
2023-02-14T23:27:48.168Z,4.18
2023-02-14T23:30:51.568Z,4.11
2023-02-14T23:33:54.678Z,4.07
2023-02-14T23:36:58.808Z,4.05
2023-02-14T23:40:04.002Z,4.02
2023-02-14T23:43:07.060Z,4.02
2023-02-14T23:46:10.343Z,3.97
2023-02-14T23:49:13.691Z,3.98
2023-02-14T23:52:17.034Z,3.82
2023-02-14T23:55:21.703Z,3.82
2023-02-14T23:58:24.842Z,3.67
